createdAt,value
2018-03-14T00:01:51.812Z,100562.91
2018-03-14T00:04:26.969Z,100558.02
2018-03-14T00:07:01.920Z,100562.12
2018-03-14T00:09:37.368Z,100569.30
2018-03-14T00:12:12.228Z,100567.02
2018-03-14T00:14:47.184Z,100571.02
2018-03-14T00:17:22.777Z,100574.47
2018-03-14T00:19:57.748Z,100574.62
2018-03-14T00:22:35.667Z,100574.47
2018-03-14T00:25:11.029Z,100580.59
2018-03-14T00:27:46.000Z,100583.19
2018-03-14T00:30:20.956Z,100586.45
2018-03-14T00:32:56.082Z,100587.24
2018-03-14T00:35:31.045Z,100596.27
2018-03-14T00:38:06.212Z,100595.98
2018-03-14T00:40:41.267Z,100598.88
2018-03-14T00:43:16.611Z,100602.17
2018-03-14T00:45:51.737Z,100597.32
2018-03-14T00:48:27.010Z,100608.22
2018-03-14T00:51:01.855Z,100610.20
2018-03-14T00:53:36.992Z,100612.27
2018-03-14T00:56:11.941Z,100609.36
2018-03-14T00:58:48.206Z,100612.63
2018-03-14T01:01:22.820Z,100604.05
2018-03-14T01:03:57.867Z,100606.89
2018-03-14T01:06:33.060Z,100610.35
2018-03-14T01:09:07.921Z,100617.30
2018-03-14T01:11:43.212Z,100607.96
2018-03-14T01:14:18.288Z,100611.50
2018-03-14T01:16:53.340Z,100617.09
2018-03-14T01:19:28.395Z,100612.94
2018-03-14T01:22:04.464Z,100612.09
2018-03-14T01:24:40.121Z,100613.87
2018-03-14T01:27:14.987Z,100617.70
2018-03-14T01:29:49.837Z,100616.66
2018-03-14T01:32:25.287Z,100618.22
2018-03-14T01:35:00.816Z,100618.34
2018-03-14T01:37:35.866Z,100623.08
2018-03-14T01:40:10.793Z,100625.77
2018-03-14T01:42:45.960Z,100623.86
2018-03-14T01:45:21.017Z,100621.36
2018-03-14T01:47:56.485Z,100618.36
2018-03-14T01:50:31.831Z,100629.25
2018-03-14T01:53:30.098Z,100621.47
2018-03-14T01:56:04.964Z,100623.92
2018-03-14T01:58:40.016Z,100625.92
2018-03-14T02:01:15.047Z,100625.14
2018-03-14T02:03:50.204Z,100629.64
2018-03-14T02:06:25.347Z,100630.42
2018-03-14T02:09:00.071Z,100629.41
2018-03-14T02:11:35.207Z,100635.98
2018-03-14T02:14:10.168Z,100643.21
2018-03-14T02:16:45.241Z,100640.00
2018-03-14T02:19:19.764Z,100646.34
2018-03-14T02:21:55.175Z,100649.21
2018-03-14T02:24:30.528Z,100644.87
2018-03-14T02:27:05.288Z,100654.06
2018-03-14T02:29:41.019Z,100654.89
2018-03-14T02:32:16.100Z,100655.43
2018-03-14T02:34:51.083Z,100654.20
2018-03-14T02:37:26.348Z,100660.18
2018-03-14T02:40:01.059Z,100664.34
2018-03-14T02:42:36.315Z,100665.04
2018-03-14T02:45:11.675Z,100664.99
2018-03-14T02:47:47.084Z,100667.95
2018-03-14T02:50:22.146Z,100671.61
2018-03-14T02:52:57.305Z,100677.28
2018-03-14T02:55:32.331Z,100686.52
2018-03-14T02:58:07.365Z,100683.28
2018-03-14T03:00:42.352Z,100688.18
2018-03-14T03:03:17.381Z,100689.52
2018-03-14T03:05:52.616Z,100690.64
2018-03-14T03:08:27.476Z,100687.42
2018-03-14T03:11:02.159Z,100684.41
2018-03-14T03:13:37.387Z,100687.61
2018-03-14T03:16:11.800Z,100687.77
2018-03-14T03:18:47.112Z,100682.55
2018-03-14T03:21:22.420Z,100693.95
2018-03-14T03:23:57.507Z,100695.48
2018-03-14T03:26:32.500Z,100685.35
2018-03-14T03:29:07.684Z,100698.20
2018-03-14T03:31:43.217Z,100694.55
2018-03-14T03:34:18.179Z,100693.41
2018-03-14T03:36:53.724Z,100696.03
2018-03-14T03:39:28.544Z,100695.48
2018-03-14T03:42:03.472Z,100698.48
2018-03-14T03:44:38.768Z,100709.21
2018-03-14T03:47:14.431Z,100708.47
2018-03-14T03:49:48.778Z,100710.16
2018-03-14T03:52:25.563Z,100716.88
2018-03-14T03:55:00.221Z,100712.58
2018-03-14T03:57:35.480Z,100709.82
2018-03-14T04:00:10.514Z,100714.56
2018-03-14T04:02:45.753Z,100719.45
2018-03-14T04:05:20.311Z,100714.45
2018-03-14T04:07:55.588Z,100713.37
2018-03-14T04:10:30.543Z,100711.25
2018-03-14T04:13:06.108Z,100702.95
2018-03-14T04:15:41.396Z,100713.38
2018-03-14T04:18:15.725Z,100718.70
2018-03-14T04:20:50.856Z,100721.04
2018-03-14T04:23:26.316Z,100721.83
2018-03-14T04:26:01.281Z,100721.09
2018-03-14T04:28:36.300Z,100721.93
2018-03-14T04:31:11.296Z,100725.13
2018-03-14T04:33:46.288Z,100720.64
2018-03-14T04:36:21.425Z,100722.81
2018-03-14T04:38:56.414Z,100721.83
2018-03-14T04:41:31.641Z,100725.92
2018-03-14T04:44:06.705Z,100723.02
2018-03-14T04:46:42.249Z,100731.52
2018-03-14T04:49:17.353Z,100725.23
2018-03-14T04:51:52.329Z,100726.37
2018-03-14T04:54:27.607Z,100727.89
2018-03-14T04:57:02.448Z,100726.97
2018-03-14T04:59:37.567Z,100731.66
2018-03-14T05:02:12.102Z,100727.16
2018-03-14T05:04:47.416Z,100732.39
2018-03-14T05:07:22.387Z,100737.29
2018-03-14T05:09:57.296Z,100736.98
2018-03-14T05:12:32.704Z,100736.23
2018-03-14T05:15:07.499Z,100742.72
2018-03-14T05:17:42.491Z,100739.80
2018-03-14T05:20:17.313Z,100746.02
2018-03-14T05:22:52.451Z,100747.80
2018-03-14T05:25:27.576Z,100749.24
2018-03-14T05:28:02.444Z,100741.67
2018-03-14T05:30:37.675Z,100749.30
2018-03-14T05:33:12.536Z,100751.42
2018-03-14T05:35:47.537Z,100746.23
2018-03-14T05:38:22.517Z,100754.33
2018-03-14T05:40:57.506Z,100755.37
2018-03-14T05:43:32.772Z,100753.25
2018-03-14T05:46:07.472Z,100750.02
2018-03-14T05:48:42.801Z,100753.00
2018-03-14T05:51:17.588Z,100760.06
2018-03-14T05:53:52.600Z,100760.34
2018-03-14T05:56:27.824Z,100768.85
2018-03-14T05:59:02.561Z,100772.95
2018-03-14T06:01:37.395Z,100778.88
2018-03-14T06:04:12.433Z,100774.12
2018-03-14T06:06:47.466Z,100778.57
2018-03-14T06:09:22.480Z,100781.84
2018-03-14T06:11:57.561Z,100783.96
2018-03-14T06:14:32.477Z,100773.59
2018-03-14T06:17:07.536Z,100775.16
2018-03-14T06:19:42.876Z,100785.64
2018-03-14T06:22:17.645Z,100792.20
2018-03-14T06:24:52.633Z,100794.84
2018-03-14T06:27:27.640Z,100791.72
2018-03-14T06:30:02.622Z,100789.30
2018-03-14T06:32:37.834Z,100797.05
2018-03-14T06:35:12.880Z,100792.66
2018-03-14T06:37:47.916Z,100799.81
2018-03-14T06:40:23.067Z,100792.01
2018-03-14T06:42:58.019Z,100808.66
2018-03-14T06:45:32.948Z,100806.30
2018-03-14T06:48:07.776Z,100807.92
2018-03-14T06:50:42.724Z,100808.42
2018-03-14T06:53:17.784Z,100809.06
2018-03-14T06:55:52.632Z,100815.69
2018-03-14T07:01:43.512Z,100819.05
2018-03-14T07:04:29.966Z,100820.88
2018-03-14T07:07:04.276Z,100831.91
2018-03-14T07:09:39.609Z,100826.22
2018-03-14T07:12:14.226Z,100829.83
2018-03-14T07:14:49.176Z,100834.28
2018-03-14T07:17:24.069Z,100835.71
2018-03-14T07:19:58.818Z,100843.37
2018-03-14T07:22:33.516Z,100839.88
2018-03-14T07:25:07.836Z,100841.55
2018-03-14T07:27:43.021Z,100846.53
2018-03-14T07:30:17.778Z,100850.19
2018-03-14T07:32:52.691Z,100853.86
2018-03-14T07:35:27.623Z,100853.11
2018-03-14T07:38:02.147Z,100856.83
2018-03-14T07:40:37.856Z,100856.28
2018-03-14T07:43:12.290Z,100857.27
2018-03-14T07:45:47.338Z,100854.69
2018-03-14T07:48:22.315Z,100862.31
2018-03-14T07:50:57.045Z,100860.03
2018-03-14T07:53:32.042Z,100864.83
2018-03-14T07:56:06.877Z,100864.89
2018-03-14T07:58:42.098Z,100869.48
2018-03-14T08:01:17.823Z,100871.11
2018-03-14T08:03:52.889Z,100875.95
2018-03-14T08:06:27.929Z,100871.45
2018-03-14T08:09:02.469Z,100867.80
2018-03-14T08:11:37.297Z,100863.94
2018-03-14T08:14:12.149Z,100872.59
2018-03-14T08:16:47.004Z,100866.06
2018-03-14T08:19:21.940Z,100873.34
2018-03-14T08:21:56.935Z,100866.16
2018-03-14T08:24:32.142Z,100870.60
2018-03-14T08:27:06.708Z,100876.60
2018-03-14T08:29:41.745Z,100871.36
2018-03-14T08:32:16.854Z,100873.09
2018-03-14T08:34:51.829Z,100877.03
2018-03-14T08:37:27.045Z,100873.11
2018-03-14T08:40:01.869Z,100877.62
2018-03-14T08:42:36.411Z,100886.02
2018-03-14T08:45:11.269Z,100883.75
2018-03-14T08:47:46.120Z,100881.52
2018-03-14T08:50:21.157Z,100891.97
2018-03-14T08:52:56.230Z,100889.94
2018-03-14T08:55:31.472Z,100897.45
2018-03-14T08:58:06.195Z,100901.27
2018-03-14T09:00:41.220Z,100899.25
2018-03-14T09:03:15.973Z,100895.38
2018-03-14T09:05:50.888Z,100894.97
2018-03-14T09:08:26.265Z,100891.53
2018-03-14T09:11:00.919Z,100899.77
2018-03-14T09:13:36.180Z,100899.82
2018-03-14T09:16:11.061Z,100889.70
2018-03-14T09:18:45.693Z,100900.33
2018-03-14T09:21:21.027Z,100900.64
2018-03-14T09:23:55.842Z,100902.10
2018-03-14T09:26:30.889Z,100900.47
2018-03-14T09:29:05.962Z,100909.34
2018-03-14T09:31:41.126Z,100909.91
2018-03-14T09:34:15.664Z,100911.02
2018-03-14T09:36:50.541Z,100901.36
2018-03-14T09:39:25.968Z,100909.29
2018-03-14T09:42:00.984Z,100911.18
2018-03-14T09:44:35.812Z,100904.45
2018-03-14T09:47:10.651Z,100899.13
2018-03-14T09:49:45.503Z,100902.21
2018-03-14T09:52:20.479Z,100905.63
2018-03-14T09:54:55.529Z,100902.69
2018-03-14T09:57:30.313Z,100897.46
2018-03-14T10:00:04.893Z,100889.77
2018-03-14T10:02:40.297Z,100887.95
2018-03-14T10:05:15.247Z,100898.11
2018-03-14T10:07:49.780Z,100893.15
2018-03-14T10:10:24.615Z,100899.33
2018-03-14T10:13:00.001Z,100893.44
2018-03-14T10:15:34.960Z,100891.92
2018-03-14T10:18:10.001Z,100898.13
2018-03-14T10:20:45.423Z,100893.66
2018-03-14T10:23:20.496Z,100898.21
2018-03-14T10:25:55.383Z,100899.12
2018-03-14T10:28:30.419Z,100897.95
2018-03-14T10:31:05.340Z,100896.39
2018-03-14T10:33:40.412Z,100902.48
2018-03-14T10:36:15.573Z,100906.94
2018-03-14T10:38:50.292Z,100906.89
2018-03-14T10:41:26.443Z,100903.19
2018-03-14T10:44:01.508Z,100908.39
2018-03-14T10:46:36.516Z,100915.34
2018-03-14T10:49:11.198Z,100903.91
2018-03-14T10:51:46.219Z,100908.59
2018-03-14T10:54:21.155Z,100896.04
2018-03-14T10:56:55.652Z,100901.69
2018-03-14T10:59:30.399Z,100899.91
2018-03-14T11:02:10.427Z,100897.84
2018-03-14T11:04:45.663Z,100913.20
2018-03-14T11:07:20.596Z,100906.51
2018-03-14T11:09:55.424Z,100906.43
2018-03-14T11:12:30.472Z,100907.38
2018-03-14T11:15:04.975Z,100903.42
2018-03-14T11:17:40.479Z,100906.33
2018-03-14T11:20:15.304Z,100915.58
2018-03-14T11:22:49.839Z,100912.09
2018-03-14T11:25:24.787Z,100916.91
2018-03-14T11:28:00.135Z,100908.72
2018-03-14T11:30:34.647Z,100910.38
2018-03-14T11:33:09.703Z,100903.67
2018-03-14T11:35:44.633Z,100913.12
2018-03-14T11:38:19.596Z,100910.54
2018-03-14T11:40:54.600Z,100911.69
2018-03-14T11:43:29.532Z,100915.84
2018-03-14T11:46:03.986Z,100910.02
2018-03-14T11:48:39.564Z,100909.91
2018-03-14T11:51:14.302Z,100911.41
2018-03-14T11:53:49.329Z,100900.73
2018-03-14T11:56:23.760Z,100902.70
2018-03-14T11:58:58.632Z,100909.70
2018-03-14T12:01:34.051Z,100903.14
2018-03-14T12:04:09.379Z,100902.63
2018-03-14T12:06:44.308Z,100897.31
2018-03-14T12:09:18.747Z,100896.31
2018-03-14T12:11:53.679Z,100897.80
2018-03-14T12:14:28.604Z,100896.57
2018-03-14T12:17:03.555Z,100892.22
2018-03-14T12:19:38.263Z,100893.70
2018-03-14T12:22:18.319Z,100888.67
2018-03-14T12:24:52.858Z,100885.90
2018-03-14T12:27:27.684Z,100890.28
2018-03-14T12:30:02.519Z,100886.69
2018-03-14T12:32:37.652Z,100878.17
2018-03-14T12:35:12.073Z,100872.91
2018-03-14T12:37:47.118Z,100865.15
2018-03-14T12:40:22.347Z,100863.56
2018-03-14T12:42:57.272Z,100866.98
2018-03-14T12:45:31.903Z,100853.91
2018-03-14T12:48:06.785Z,100853.98
2018-03-14T12:50:42.008Z,100846.70
2018-03-14T12:53:16.855Z,100845.43
2018-03-14T12:55:51.803Z,100849.55
2018-03-14T12:58:26.951Z,100850.29
2018-03-14T13:01:01.578Z,100840.94
2018-03-14T13:03:36.159Z,100843.37
2018-03-14T13:06:11.380Z,100847.95
2018-03-14T13:08:46.008Z,100845.22
2018-03-14T13:11:20.944Z,100842.93
2018-03-14T13:13:55.753Z,100838.58
2018-03-14T13:16:30.803Z,100842.47
2018-03-14T13:19:05.660Z,100830.50
2018-03-14T13:21:40.464Z,100834.38
2018-03-14T13:24:16.024Z,100826.70
2018-03-14T13:26:50.572Z,100813.95
2018-03-14T13:29:26.843Z,100809.38
2018-03-14T13:32:01.685Z,100805.02
2018-03-14T13:34:36.770Z,100801.78
2018-03-14T13:37:11.596Z,100795.23
2018-03-14T13:39:46.586Z,100794.68
2018-03-14T13:42:21.239Z,100791.09
2018-03-14T13:44:56.090Z,100788.63
2018-03-14T13:47:31.302Z,100785.30
2018-03-14T13:50:05.664Z,100779.83
2018-03-14T13:52:40.965Z,100777.65
2018-03-14T13:55:15.791Z,100782.63
2018-03-14T13:57:50.755Z,100781.36
2018-03-14T14:00:26.985Z,100775.20
2018-03-14T14:03:02.616Z,100771.58
2018-03-14T14:05:37.644Z,100777.15
2018-03-14T14:08:12.664Z,100776.02
2018-03-14T14:10:47.879Z,100771.28
2018-03-14T14:13:22.604Z,100770.55
2018-03-14T14:15:57.725Z,100763.22
2018-03-14T14:18:32.835Z,100760.39
2018-03-14T14:21:07.700Z,100749.63
2018-03-14T14:23:42.364Z,100750.58
2018-03-14T14:26:17.189Z,100743.05
2018-03-14T14:28:52.271Z,100750.38
2018-03-14T14:31:27.283Z,100746.23
2018-03-14T14:34:02.246Z,100744.27
2018-03-14T14:36:37.608Z,100718.64
2018-03-14T14:39:12.154Z,100729.22
2018-03-14T14:41:46.924Z,100721.13
2018-03-14T14:44:22.870Z,100729.44
2018-03-14T14:46:58.020Z,100721.53
2018-03-14T14:49:32.869Z,100708.83
2018-03-14T14:52:07.688Z,100705.39
2018-03-14T14:54:42.699Z,100707.77
2018-03-14T14:57:17.233Z,100708.58
2018-03-14T14:59:51.989Z,100700.20
2018-03-14T15:02:27.183Z,100704.23
2018-03-14T15:05:02.009Z,100700.52
2018-03-14T15:07:36.956Z,100702.22
2018-03-14T15:10:11.667Z,100693.44
2018-03-14T15:12:46.209Z,100696.53
2018-03-14T15:15:21.162Z,100690.63
2018-03-14T15:17:55.880Z,100682.70
2018-03-14T15:20:30.809Z,100680.52
2018-03-14T15:23:05.759Z,100685.79
2018-03-14T15:25:40.983Z,100677.91
2018-03-14T15:28:15.917Z,100677.32
2018-03-14T15:30:50.893Z,100678.10
2018-03-14T15:33:25.235Z,100679.60
2018-03-14T15:35:59.879Z,100675.96
2018-03-14T15:38:35.124Z,100676.42
2018-03-14T15:41:10.052Z,100668.42
2018-03-14T15:43:45.051Z,100665.93
2018-03-14T15:46:19.887Z,100652.35
2018-03-14T15:48:54.949Z,100646.72
2018-03-14T15:51:29.776Z,100650.33
2018-03-14T15:54:04.797Z,100648.71
2018-03-14T15:56:39.644Z,100647.14
2018-03-14T15:59:14.510Z,100649.12
2018-03-14T16:01:49.222Z,100651.70
2018-03-14T16:04:24.004Z,100654.94
2018-03-14T16:06:58.970Z,100654.44
2018-03-14T16:09:34.119Z,100662.97
2018-03-14T16:15:05.012Z,100657.30
2018-03-14T16:17:40.230Z,100661.77
2018-03-14T16:20:15.255Z,100657.08
2018-03-14T16:22:50.097Z,100656.70
2018-03-14T16:25:25.053Z,100647.15
2018-03-14T16:28:00.005Z,100659.48
2018-03-14T16:30:35.020Z,100660.97
2018-03-14T16:33:09.970Z,100657.34
2018-03-14T16:35:45.079Z,100658.59
2018-03-14T16:38:19.667Z,100654.77
2018-03-14T16:40:54.589Z,100658.88
2018-03-14T16:43:29.520Z,100656.58
2018-03-14T16:46:04.959Z,100660.68
2018-03-14T16:48:40.019Z,100650.13
2018-03-14T16:51:14.832Z,100653.57
2018-03-14T16:53:49.861Z,100658.03
2018-03-14T16:56:24.502Z,100660.55
2018-03-14T16:58:59.981Z,100651.84
2018-03-14T17:01:35.012Z,100658.92
2018-03-14T17:04:09.452Z,100658.59
2018-03-14T17:06:44.389Z,100656.36
2018-03-14T17:09:19.530Z,100658.64
2018-03-14T17:11:54.472Z,100664.67
2018-03-14T17:14:29.664Z,100672.20
2018-03-14T17:17:05.097Z,100666.05
2018-03-14T17:19:40.160Z,100658.65
2018-03-14T17:22:15.078Z,100661.27
2018-03-14T17:24:50.127Z,100663.51
2018-03-14T17:27:25.134Z,100668.80
2018-03-14T17:30:00.404Z,100671.55
2018-03-14T17:32:35.360Z,100677.27
2018-03-14T17:35:10.218Z,100669.46
2018-03-14T17:37:45.156Z,100680.66
2018-03-14T17:40:19.673Z,100687.64
2018-03-14T17:42:54.536Z,100689.30
2018-03-14T17:45:29.644Z,100683.75
2018-03-14T17:48:04.034Z,100687.80
2018-03-14T17:50:38.566Z,100689.34
2018-03-14T17:53:13.736Z,100694.08
2018-03-14T17:55:48.579Z,100693.50
2018-03-14T17:58:23.706Z,100695.33
2018-03-14T18:00:58.558Z,100691.02
2018-03-14T18:03:33.515Z,100692.22
2018-03-14T18:06:08.323Z,100690.36
2018-03-14T18:08:43.753Z,100696.43
2018-03-14T18:11:18.529Z,100699.60
2018-03-14T18:13:53.276Z,100703.22
2018-03-14T18:16:28.026Z,100705.90
2018-03-14T18:19:02.468Z,100710.30
2018-03-14T18:21:38.096Z,100710.64
2018-03-14T18:24:13.184Z,100708.47
2018-03-14T18:26:48.172Z,100703.64
2018-03-14T18:29:22.608Z,100705.66
2018-03-14T18:31:57.286Z,100709.98
2018-03-14T18:34:32.451Z,100703.18
2018-03-14T18:37:07.101Z,100701.86
2018-03-14T18:39:42.295Z,100704.98
2018-03-14T18:42:17.232Z,100699.95
2018-03-14T18:44:51.331Z,100706.91
2018-03-14T18:47:25.759Z,100699.34
2018-03-14T18:50:01.373Z,100700.68
2018-03-14T18:52:36.770Z,100698.75
2018-03-14T18:55:11.616Z,100695.50
2018-03-14T18:57:46.291Z,100699.84
2018-03-14T19:00:21.561Z,100696.84
2018-03-14T19:02:56.447Z,100693.23
2018-03-14T19:05:31.548Z,100690.90
2018-03-14T19:08:06.569Z,100693.52
2018-03-14T19:10:41.299Z,100692.79
2018-03-14T19:13:16.351Z,100686.07
2018-03-14T19:15:51.496Z,100681.47
2018-03-14T19:18:27.497Z,100682.90
2018-03-14T19:21:02.743Z,100668.44
2018-03-14T19:23:37.875Z,100668.88
2018-03-14T19:26:13.334Z,100673.57
2018-03-14T19:28:48.437Z,100667.50
2018-03-14T19:31:23.592Z,100658.70
2018-03-14T19:33:58.207Z,100663.45
2018-03-14T19:36:33.231Z,100656.23
2018-03-14T19:39:08.363Z,100658.50
2018-03-14T19:41:43.142Z,100647.94
2018-03-14T19:44:17.709Z,100635.59
2018-03-14T19:46:52.031Z,100630.61
2018-03-14T19:49:27.804Z,100627.27
2018-03-14T19:52:02.641Z,100632.39
2018-03-14T19:54:37.896Z,100623.41
2018-03-14T19:57:12.464Z,100629.63
2018-03-14T19:59:47.381Z,100628.98
2018-03-14T20:02:21.730Z,100613.83
2018-03-14T20:04:56.947Z,100603.56
2018-03-14T20:07:32.515Z,100611.45
2018-03-14T20:10:07.479Z,100603.25
2018-03-14T20:12:42.710Z,100601.83
2018-03-14T20:15:17.978Z,100596.05
2018-03-14T20:17:53.304Z,100602.62
2018-03-14T20:20:27.980Z,100594.43
2018-03-14T20:23:03.407Z,100587.80
2018-03-14T20:25:37.927Z,100587.02
2018-03-14T20:28:12.517Z,100583.90
2018-03-14T20:30:47.507Z,100585.44
2018-03-14T20:33:22.491Z,100582.28
2018-03-14T20:35:57.522Z,100575.47
2018-03-14T20:38:32.756Z,100565.61
2018-03-14T20:41:07.327Z,100561.30
2018-03-14T20:43:42.513Z,100559.84
2018-03-14T20:46:16.987Z,100554.89
2018-03-14T20:48:52.412Z,100558.25
2018-03-14T20:51:27.940Z,100553.02
2018-03-14T20:54:02.653Z,100548.73
2018-03-14T20:56:37.878Z,100549.41
2018-03-14T20:59:12.250Z,100546.64
2018-03-14T21:01:47.737Z,100539.94
2018-03-14T21:04:23.449Z,100545.95
2018-03-14T21:06:58.613Z,100546.49
2018-03-14T21:09:33.838Z,100535.94
2018-03-14T21:12:08.880Z,100529.73
2018-03-14T21:14:43.851Z,100534.27
2018-03-14T21:17:18.856Z,100525.73
2018-03-14T21:19:53.907Z,100525.34
2018-03-14T21:22:29.639Z,100521.30
2018-03-14T21:25:04.330Z,100516.61
2018-03-14T21:27:38.957Z,100517.53
2018-03-14T21:30:13.820Z,100509.97
2018-03-14T21:32:48.851Z,100508.16
2018-03-14T21:35:24.001Z,100506.88
2018-03-14T21:37:58.970Z,100505.30
2018-03-14T21:40:33.988Z,100493.45
2018-03-14T21:43:08.637Z,100493.67
2018-03-14T21:45:43.550Z,100491.20
2018-03-14T21:48:18.672Z,100485.35
2018-03-14T21:50:53.633Z,100479.38
2018-03-14T21:53:29.099Z,100476.25
2018-03-14T21:56:06.399Z,100471.47
2018-03-14T21:58:41.226Z,100466.78
2018-03-14T22:01:15.502Z,100469.78
2018-03-14T22:03:50.759Z,100459.03
2018-03-14T22:06:25.709Z,100462.34
2018-03-14T22:09:00.692Z,100457.52
2018-03-14T22:11:36.006Z,100464.47
2018-03-14T22:14:15.070Z,100456.39
2018-03-14T22:16:50.301Z,100447.89
2018-03-14T22:19:24.773Z,100453.03
2018-03-14T22:21:59.235Z,100439.72
2018-03-14T22:24:34.642Z,100442.17
2018-03-14T22:27:09.739Z,100458.03
2018-03-14T22:29:45.059Z,100439.77
2018-03-14T22:32:20.315Z,100440.93
2018-03-14T22:34:55.067Z,100439.70
2018-03-14T22:37:29.769Z,100434.34
2018-03-14T22:40:04.821Z,100429.58
2018-03-14T22:42:40.048Z,100439.28
2018-03-14T22:45:15.079Z,100427.02
2018-03-14T22:47:50.247Z,100426.17
2018-03-14T22:50:25.781Z,100417.61
2018-03-14T22:53:00.728Z,100424.25
2018-03-14T22:55:35.768Z,100418.62
2018-03-14T22:58:10.694Z,100423.87
2018-03-14T23:00:45.001Z,100420.88
2018-03-14T23:03:19.750Z,100418.23
2018-03-14T23:05:54.664Z,100418.17
2018-03-14T23:08:30.088Z,100419.22
2018-03-14T23:11:04.902Z,100413.32
2018-03-14T23:13:40.141Z,100411.34
2018-03-14T23:16:15.172Z,100407.34
2018-03-14T23:18:50.264Z,100401.24
2018-03-14T23:21:25.714Z,100393.72
2018-03-14T23:24:00.720Z,100396.49
2018-03-14T23:26:35.442Z,100389.84
2018-03-14T23:29:10.378Z,100364.89
2018-03-14T23:31:44.934Z,100386.84
2018-03-14T23:34:19.912Z,100386.53
2018-03-14T23:36:54.848Z,100389.05
2018-03-14T23:39:30.158Z,100379.63
2018-03-14T23:42:04.978Z,100378.28
2018-03-14T23:44:39.711Z,100371.23
2018-03-14T23:47:14.824Z,100366.67
2018-03-14T23:49:49.974Z,100369.09
2018-03-14T23:52:25.134Z,100362.44
2018-03-14T23:55:00.856Z,100366.25
2018-03-14T23:57:35.927Z,100359.21
